KFLD

Fond Du Lac County Airport

Fond Du Lac, Wisconsin, USA
METAR KFLD 171953Z AUTO 30018G28KT 10SM FEW065 09/M05 A3028 RMK AO2 PK WND 29028/1947 SLP259 T00941050
Observed Flight Rules
Oct-17 @ 19:53 UTC (36 minutes ago) Visual Flight Rules
Wind Visibility Clouds
300° at 18 knots
 Gusting to 28 knots
10 miles
  • Few at 6,500' AGL
Temperatures Readings
Current 9°C / 48°F
Dewpoint -5°C / 23°F
Humidity 37%
Altimeter 30.28" Hg
Pressure 1025.9 hPa
Elevation 240
METAR KFLD 171953Z AUTO 30018G28KT 10SM FEW065 09/M05 A3028 RMK AO2 PK WND 29028/1947 SLP259 T00941050
Observed Flight Rules
Oct-17 @ 19:53 UTC
(36 minutes ago)
VFR
Wind Visibility
300° at 18 knots
 Gusting to 28 knots
10 miles
Clouds
  • Few at 6,500' AGL
Temperature Dewpoint
9°C / 48°F -5°C / 23°F
Humidity Altimeter Pressure
37% 30.28" Hg 1025.9 hPa